Time;durP1;ratioP1;P1;durP2;ratioP2;P2;SDS_P1;SDS_P2;PMS_P1;PMS_P2;Temp;Humidity;BMP_temperature;BMP_pressure;BME280_temperature;BME280_humidity;BME280_pressure;Samples;Min_cycle;Max_cycle;Signal;HPM_P1;HPM_P2
2023/12/30 00:03:00;;;;;;;10.13;9.20;;;;;;;22.27;31.95;95365.56;6167681;28;110429;-55
2023/12/30 00:06:04;;;;;;;10.27;9.27;;;;;;;22.28;31.33;95361.81;6157149;28;109622;-55
2023/12/30 00:09:07;;;;;;;9.80;8.90;;;;;;;22.28;31.68;95359.94;6157213;28;110318;-68
2023/12/30 00:12:12;;;;;;;10.67;9.50;;;;;;;22.28;31.84;95364.50;6172738;28;108825;-56
2023/12/30 00:15:16;;;;;;;9.90;9.00;;;;;;;22.27;31.78;95361.03;6162263;28;109668;-55
2023/12/30 00:18:19;;;;;;;10.00;9.10;;;;;;;22.27;31.52;95355.69;6151631;28;109500;-56
2023/12/30 00:21:23;;;;;;;10.33;9.23;;;;;;;22.27;31.51;95361.03;6176191;28;109194;-56
2023/12/30 00:24:26;;;;;;;10.00;9.07;;;;;;;22.24;31.45;95366.19;6162390;28;109372;-56
2023/12/30 00:27:30;;;;;;;9.80;8.90;;;;;;;22.25;31.73;95370.41;6161122;28;109249;-59
2023/12/30 00:30:34;;;;;;;10.17;9.17;;;;;;;22.24;31.48;95372.28;6159118;28;110039;-55
2023/12/30 00:33:37;;;;;;;9.97;9.00;;;;;;;22.24;31.59;95376.84;6166032;28;109327;-56
2023/12/30 00:36:43;;;;;;;10.47;9.50;;;;;;;22.24;31.82;95374.19;6175768;28;108999;-55
2023/12/30 00:39:46;;;;;;;10.43;9.43;;;;;;;22.25;31.67;95375.75;6167345;28;108997;-56
2023/12/30 00:42:51;;;;;;;10.40;9.43;;;;;;;22.27;31.61;95381.56;6163954;28;109235;-55
2023/12/30 00:45:54;;;;;;;10.30;9.27;;;;;;;22.28;31.56;95378.59;6166103;28;110053;-55
2023/12/30 00:48:57;;;;;;;9.93;8.97;;;;;;;22.30;31.70;95386.31;6186032;28;109711;-58
2023/12/30 00:52:00;;;;;;;10.77;9.70;;;;;;;22.30;31.68;95375.63;6163535;28;109071;-56
2023/12/30 00:55:04;;;;;;;10.70;9.73;;;;;;;22.32;31.62;95378.78;6168481;28;109065;-56
2023/12/30 00:58:09;;;;;;;10.80;9.80;;;;;;;22.30;31.61;95376.44;6168425;28;109335;-56
2023/12/30 01:01:12;;;;;;;9.53;8.70;;;;;;;22.30;31.82;95380.97;6161002;28;109998;-55
2023/12/30 01:04:15;;;;;;;10.07;9.17;;;;;;;22.30;31.57;95375.63;6152447;28;109738;-56
2023/12/30 01:07:18;;;;;;;10.50;9.50;;;;;;;22.30;31.38;95380.97;6163983;28;109043;-55
2023/12/30 01:10:22;;;;;;;9.43;8.63;;;;;;;22.28;31.33;95373.28;6171378;28;109089;-55
2023/12/30 01:13:26;;;;;;;11.90;10.00;;;;;;;22.26;31.86;95372.00;6161094;28;109598;-55
2023/12/30 01:16:30;;;;;;;11.23;10.07;;;;;;;22.28;31.90;95380.47;6161984;28;109141;-55
2023/12/30 01:19:33;;;;;;;10.20;9.20;;;;;;;22.21;31.70;95369.44;6176946;28;109326;-55
2023/12/30 01:22:36;;;;;;;10.60;9.60;;;;;;;22.23;31.33;95373.38;6159310;28;109118;-55
2023/12/30 01:25:41;;;;;;;11.23;10.17;;;;;;;22.23;31.88;95376.06;6161755;28;109245;-55
2023/12/30 01:28:46;;;;;;;10.80;9.80;;;;;;;22.23;32.06;95370.72;6158285;28;109151;-55
2023/12/30 01:31:49;;;;;;;11.47;10.27;;;;;;;22.23;31.71;95376.06;6173566;28;110001;-56
2023/12/30 01:34:52;;;;;;;11.33;10.33;;;;;;;22.21;31.28;95372.09;6164723;28;110339;-55
2023/12/30 01:37:55;;;;;;;11.40;10.30;;;;;;;22.21;31.54;95372.09;6151478;28;110002;-55
2023/12/30 01:40:58;;;;;;;11.23;10.23;;;;;;;22.21;31.20;95374.78;6160142;28;109033;-57
2023/12/30 01:44:03;;;;;;;11.90;10.80;;;;;;;22.21;31.88;95367.56;6160940;28;110098;-55
2023/12/30 01:47:06;;;;;;;11.90;10.80;;;;;;;22.20;31.78;95368.66;6171133;28;109300;-55
2023/12/30 01:50:10;;;;;;;12.50;11.20;;;;;;;22.20;31.63;95370.53;6167913;28;109060;-55
2023/12/30 01:53:14;;;;;;;12.30;11.27;;;;;;;22.20;31.79;95373.19;6181733;28;109096;-55
2023/12/30 01:56:17;;;;;;;12.80;11.60;;;;;;;22.22;31.09;95366.47;6177901;28;109267;-56
2023/12/30 01:59:22;;;;;;;12.70;11.60;;;;;;;22.28;31.16;95359.16;6156550;28;110013;-57
2023/12/30 02:02:25;;;;;;;12.73;11.53;;;;;;;22.22;31.47;95355.03;6158424;28;110271;-56
2023/12/30 02:05:28;;;;;;;13.50;12.20;;;;;;;22.19;31.59;95353.75;6168697;28;109333;-56
2023/12/30 02:08:32;;;;;;;12.60;11.40;;;;;;;22.18;31.31;95349.50;6164879;28;110040;-56
2023/12/30 02:11:35;;;;;;;13.63;12.43;;;;;;;22.17;31.82;95341.78;6153879;28;109959;-56
2023/12/30 02:14:40;;;;;;;13.73;12.43;;;;;;;22.16;31.41;95345.53;6185467;28;109210;-56
2023/12/30 02:17:43;;;;;;;12.90;11.70;;;;;;;22.15;31.35;95344.75;6187341;28;109236;-56
2023/12/30 02:20:46;;;;;;;13.90;12.60;;;;;;;22.15;31.72;95346.63;6174442;28;109604;-56
2023/12/30 02:23:53;;;;;;;14.80;13.40;;;;;;;22.14;31.42;95350.38;6177064;28;109148;-56
2023/12/30 02:26:56;;;;;;;14.77;13.47;;;;;;;22.14;31.42;95351.16;6163900;28;109057;-56
2023/12/30 02:29:59;;;;;;;14.07;12.77;;;;;;;22.14;31.66;95351.16;6173485;28;110539;-56
2023/12/30 02:33:02;;;;;;;13.73;12.53;;;;;;;22.14;31.24;95355.72;6163230;28;109102;-56
2023/12/30 02:36:07;;;;;;;13.90;12.70;;;;;;;22.14;31.44;95355.72;6153516;28;109270;-56
2023/12/30 02:39:11;;;;;;;14.20;12.90;;;;;;;22.14;31.32;95356.50;6164552;28;110388;-56
2023/12/30 02:42:14;;;;;;;13.27;12.07;;;;;;;22.14;31.49;95359.16;6165066;28;110354;-56
2023/12/30 02:45:17;;;;;;;15.33;13.80;;;;;;;22.14;31.21;95361.84;6168842;28;109238;-57
2023/12/30 02:48:20;;;;;;;14.33;12.97;;;;;;;22.13;31.49;95364.78;6185694;28;110102;-56
2023/12/30 02:51:24;;;;;;;14.90;13.60;;;;;;;22.13;31.03;95360.25;6183300;28;109139;-58
2023/12/30 02:54:29;;;;;;;15.10;13.33;;;;;;;22.11;31.51;95355.22;6187991;28;110245;-58
2023/12/30 02:57:32;;;;;;;15.77;14.27;;;;;;;22.12;31.60;95353.34;6178020;28;110109;-57
2023/12/30 03:00:49;;;;;;;15.23;13.77;;;;;;;22.11;31.20;95352.56;6176991;28;110218;-58
2023/12/30 03:03:53;;;;;;;15.87;14.37;;;;;;;22.09;31.21;95343.28;6164009;28;110226;-58
2023/12/30 03:06:57;;;;;;;15.40;13.80;;;;;;;22.10;31.52;95347.53;6188521;28;110479;-58
2023/12/30 03:10:01;;;;;;;16.87;15.37;;;;;;;22.11;31.34;95351.78;6169113;28;109574;-57
2023/12/30 03:13:05;;;;;;;14.80;13.50;;;;;;;22.10;31.16;95348.31;6163725;28;109543;-58
2023/12/30 03:16:10;;;;;;;15.83;14.37;;;;;;;22.10;31.17;95347.53;6164332;28;109179;-58
2023/12/30 03:19:14;;;;;;;15.63;14.23;;;;;;;22.09;31.36;95344.06;6157346;28;109068;-58
2023/12/30 03:22:17;;;;;;;15.40;14.00;;;;;;;22.08;31.04;95344.38;6172931;28;109081;-57
2023/12/30 03:25:21;;;;;;;16.20;14.70;;;;;;;22.08;30.95;95341.72;6162914;28;110247;-59
2023/12/30 03:28:26;;;;;;;16.23;14.70;;;;;;;22.08;30.96;95347.03;6163173;28;109218;-58
2023/12/30 03:31:30;;;;;;;15.43;14.03;;;;;;;22.08;31.05;95344.38;6154788;28;109995;-58
2023/12/30 03:34:33;;;;;;;15.40;13.90;;;;;;;22.07;30.74;95345.47;6165454;28;109440;-58
2023/12/30 03:37:36;;;;;;;16.00;14.63;;;;;;;22.08;30.75;95347.81;6177766;28;109262;-58
2023/12/30 03:40:40;;;;;;;16.03;14.53;;;;;;;22.07;30.97;95345.47;6162325;28;109796;-58
2023/12/30 03:43:44;;;;;;;15.40;14.00;;;;;;;22.07;31.24;95348.91;6167379;28;109151;-58
2023/12/30 03:46:47;;;;;;;15.40;14.00;;;;;;;22.07;30.61;95351.59;6187201;28;110045;-58
2023/12/30 03:49:50;;;;;;;15.27;13.87;;;;;;;22.06;30.82;95350.00;6185380;28;110120;-58
2023/12/30 03:52:54;;;;;;;15.40;14.00;;;;;;;22.06;31.24;95358.00;6183674;28;109954;-58
2023/12/30 03:55:58;;;;;;;14.77;13.47;;;;;;;22.04;31.04;95351.41;6161165;28;109275;-58
2023/12/30 03:59:01;;;;;;;15.00;13.70;;;;;;;22.04;30.90;95352.19;6162861;28;110195;-58
2023/12/30 04:02:04;;;;;;;13.93;12.73;;;;;;;22.05;31.15;95359.09;6163373;28;109062;-58
2023/12/30 04:05:08;;;;;;;14.33;13.10;;;;;;;22.02;30.57;95359.69;6152094;28;109027;-58
2023/12/30 04:08:11;;;;;;;15.00;13.67;;;;;;;22.03;30.88;95361.25;6161372;28;109093;-58
2023/12/30 04:11:16;;;;;;;14.47;13.07;;;;;;;22.03;30.58;95371.94;6174529;28;110105;-58
2023/12/30 04:14:19;;;;;;;14.70;13.47;;;;;;;22.04;31.03;95373.50;6178143;28;109044;-58
2023/12/30 04:17:22;;;;;;;15.70;14.30;;;;;;;22.04;30.67;95368.16;6157018;28;108991;-58
2023/12/30 04:20:25;;;;;;;15.23;13.70;;;;;;;22.06;30.82;95363.31;6167865;28;109285;-58
2023/12/30 04:23:28;;;;;;;15.03;13.73;;;;;;;22.04;30.69;95373.50;6162398;28;109076;-58
2023/12/30 04:26:33;;;;;;;13.70;12.57;;;;;;;22.04;30.54;95372.72;6161403;28;109127;-58
2023/12/30 04:29:36;;;;;;;14.53;13.17;;;;;;;22.05;30.48;95368.97;6150661;28;109845;-58
2023/12/30 04:32:39;;;;;;;14.50;13.20;;;;;;;22.03;30.68;95374.59;6161700;28;110070;-58
2023/12/30 04:35:42;;;;;;;15.40;14.00;;;;;;;22.03;30.75;95371.94;6172213;28;110316;-59
2023/12/30 04:38:45;;;;;;;15.57;13.80;;;;;;;22.03;30.96;95368.47;6180908;28;109190;-58
2023/12/30 04:41:51;;;;;;;15.13;13.83;;;;;;;22.03;30.93;95365.81;6155548;28;110063;-58
2023/12/30 04:44:54;;;;;;;14.63;13.40;;;;;;;22.01;30.62;95376.78;6173111;28;109402;-58
2023/12/30 04:47:57;;;;;;;14.73;13.47;;;;;;;22.01;30.57;95378.63;6186795;28;110238;-57
2023/12/30 04:51:00;;;;;;;14.37;13.00;;;;;;;22.01;30.44;95365.28;6162729;28;109224;-57
2023/12/30 04:54:04;;;;;;;15.17;13.77;;;;;;;22.01;30.93;95368.78;6161560;28;109125;-57
2023/12/30 04:57:08;;;;;;;14.33;13.03;;;;;;;22.00;30.86;95372.50;6160174;28;109372;-57
2023/12/30 05:00:13;;;;;;;14.03;12.67;;;;;;;22.00;30.85;95377.03;6167629;28;109383;-57
2023/12/30 05:03:17;;;;;;;15.20;13.80;;;;;;;22.01;31.03;95378.63;6153810;28;108994;-63
2023/12/30 05:06:21;;;;;;;14.50;13.10;;;;;;;22.01;30.65;95387.44;6161248;28;109091;-57
2023/12/30 05:09:24;;;;;;;14.40;12.97;;;;;;;22.03;30.41;95387.91;6166511;28;111812;-57
2023/12/30 05:12:29;;;;;;;13.90;12.70;;;;;;;22.04;30.51;95391.38;6172897;28;109101;-57
2023/12/30 05:15:32;;;;;;;13.93;12.73;;;;;;;22.04;30.41;95394.03;6161757;28;110211;-57
2023/12/30 05:18:35;;;;;;;13.80;12.47;;;;;;;21.99;30.71;95391.44;6161148;28;110143;-57
2023/12/30 05:21:38;;;;;;;14.53;13.13;;;;;;;22.01;30.66;95394.59;6175313;28;109340;-57
2023/12/30 05:24:44;;;;;;;14.10;12.80;;;;;;;22.02;30.87;95402.31;6169849;28;110624;-57
2023/12/30 05:27:49;;;;;;;12.50;11.47;;;;;;;22.01;30.88;95406.06;6167798;28;109047;-57
2023/12/30 05:30:52;;;;;;;13.43;12.23;;;;;;;22.04;30.50;95410.03;6169960;28;109312;-57
2023/12/30 05:33:55;;;;;;;13.17;11.87;;;;;;;22.06;30.28;95407.84;6161160;28;110089;-57
2023/12/30 05:36:59;;;;;;;12.47;11.27;;;;;;;22.07;30.88;95404.09;6150142;28;110109;-57
2023/12/30 05:40:02;;;;;;;13.07;11.97;;;;;;;22.06;30.30;95392.66;6160772;28;110490;-57
2023/12/30 05:43:07;;;;;;;13.63;11.90;;;;;;;22.08;30.31;95400.34;6174986;28;109022;-62
2023/12/30 05:46:16;;;;;;;12.80;11.60;;;;;;;22.10;30.36;95398.97;6160194;28;109277;-57
2023/12/30 05:49:19;;;;;;;11.50;10.60;;;;;;;22.12;30.25;95406.66;6166905;28;110518;-57
2023/12/30 05:52:22;;;;;;;12.80;11.60;;;;;;;22.10;30.84;95398.16;6158940;28;109190;-57
2023/12/30 05:55:26;;;;;;;12.63;11.43;;;;;;;22.13;30.33;95418.09;6175301;28;109122;-57
2023/12/30 05:58:30;;;;;;;12.57;11.27;;;;;;;22.16;30.46;95420.97;6175810;28;111283;-57
2023/12/30 06:01:33;;;;;;;12.60;11.57;;;;;;;22.18;30.51;95423.31;6160656;28;110006;-72
2023/12/30 06:04:40;;;;;;;12.23;11.03;;;;;;;22.17;30.59;95424.41;6176647;28;111324;-56
2023/12/30 06:07:43;;;;;;;13.57;12.27;;;;;;;22.14;30.15;95420.47;6185355;28;110014;-57
2023/12/30 06:10:49;;;;;;;12.60;11.40;;;;;;;22.14;30.45;95425.00;6172463;28;110055;-57
2023/12/30 06:13:54;;;;;;;13.17;11.90;;;;;;;22.14;30.37;95420.47;6167373;28;109040;-57
2023/12/30 06:16:57;;;;;;;14.10;12.80;;;;;;;22.12;30.18;95422.66;6166730;28;109125;-57
2023/12/30 06:20:00;;;;;;;15.00;13.07;;;;;;;22.07;30.18;95426.22;6178103;28;109222;-57
2023/12/30 06:23:04;;;;;;;14.77;13.43;;;;;;;22.06;30.03;95434.50;6149151;28;109150;-59
2023/12/30 06:26:07;;;;;;;14.30;12.80;;;;;;;22.05;30.22;95430.25;6177687;28;110219;-59
2023/12/30 06:29:11;;;;;;;14.03;12.73;;;;;;;22.08;29.96;95430.44;6161474;28;109033;-59
2023/12/30 06:32:15;;;;;;;14.77;12.77;;;;;;;22.07;30.03;95438.75;6167772;28;109247;-59
2023/12/30 06:35:18;;;;;;;15.50;13.03;;;;;;;22.05;30.65;95428.38;6171874;28;112349;-60
2023/12/30 06:38:21;;;;;;;17.33;14.30;;;;;;;22.03;30.30;95440.44;6165544;28;109271;-59
2023/12/30 06:41:24;;;;;;;16.60;15.10;;;;;;;22.00;30.35;95436.44;6171685;28;109245;-66
2023/12/30 06:44:29;;;;;;;18.10;16.23;;;;;;;22.00;30.11;95449.78;6167122;28;109914;-60
2023/12/30 06:47:32;;;;;;;19.23;17.37;;;;;;;22.01;30.15;95448.72;6162962;28;110052;-60
2023/12/30 06:50:35;;;;;;;17.97;16.17;;;;;;;22.05;30.24;95452.38;6166834;28;109237;-59
2023/12/30 06:53:38;;;;;;;17.80;16.00;;;;;;;22.09;30.26;95453.34;6166949;28;109240;-59
2023/12/30 06:56:43;;;;;;;18.60;16.80;;;;;;;22.08;29.97;95453.66;6161071;28;109265;-60
2023/12/30 06:59:47;;;;;;;20.37;18.40;;;;;;;22.04;29.92;95453.44;6173333;28;109190;-61
2023/12/30 07:02:51;;;;;;;19.87;17.33;;;;;;;22.07;29.98;95452.84;6174553;28;109116;-61
2023/12/30 07:05:54;;;;;;;20.10;18.10;;;;;;;22.10;29.92;95462.13;6176361;28;109105;-59
2023/12/30 07:08:57;;;;;;;20.43;18.60;;;;;;;22.19;29.40;95459.59;6157799;28;109231;-60
2023/12/30 07:12:00;;;;;;;21.97;19.67;;;;;;;22.32;29.55;95458.78;6167340;28;110026;-60
2023/12/30 07:15:05;;;;;;;22.17;20.20;;;;;;;22.38;29.20;95463.72;6183829;28;109805;-60
2023/12/30 07:18:09;;;;;;;23.50;21.00;;;;;;;22.36;29.55;95467.78;6158737;28;110127;-61
2023/12/30 07:21:12;;;;;;;21.87;19.87;;;;;;;22.35;29.80;95469.66;6166155;28;109138;-62
2023/12/30 07:24:17;;;;;;;23.33;20.97;;;;;;;22.46;29.50;95472.09;6167567;28;109189;-60
2023/12/30 07:27:20;;;;;;;20.30;18.43;;;;;;;22.56;29.51;95479.91;6162049;28;109241;-61
2023/12/30 07:30:25;;;;;;;20.40;18.60;;;;;;;22.73;29.21;95482.00;6163020;28;110001;-61
2023/12/30 07:33:28;;;;;;;20.50;18.40;;;;;;;22.60;29.90;95487.06;6185820;28;109371;-57
2023/12/30 07:36:32;;;;;;;19.77;17.97;;;;;;;22.58;30.01;95486.56;6180238;28;109051;-58
2023/12/30 07:39:35;;;;;;;19.40;17.67;;;;;;;22.59;29.50;95485.47;6173042;28;108883;-57
2023/12/30 07:42:38;;;;;;;34.10;30.87;;;;;;;22.25;28.41;95488.50;6152354;28;110260;-57
2023/12/30 07:45:44;;;;;;;42.00;38.10;;;;;;;21.12;27.38;95491.41;6184361;28;109257;-57
2023/12/30 07:48:47;;;;;;;41.10;37.40;;;;;;;20.71;27.86;95482.38;6175048;28;109326;-57
2023/12/30 07:51:50;;;;;;;40.67;36.87;;;;;;;20.32;28.04;95493.97;6157768;28;110214;-57
2023/12/30 07:54:53;;;;;;;39.97;36.17;;;;;;;20.25;28.24;95486.34;6163691;28;109361;-57
2023/12/30 07:57:57;;;;;;;36.10;32.80;;;;;;;21.10;28.39;95493.56;6177535;28;109117;-57
2023/12/30 08:01:01;;;;;;;35.10;31.90;;;;;;;21.63;27.91;95497.81;6177395;28;110135;-57
2023/12/30 08:04:05;;;;;;;31.83;29.03;;;;;;;21.91;27.08;95490.72;6166130;28;110240;-58
2023/12/30 08:07:08;;;;;;;32.20;29.20;;;;;;;22.05;27.49;95488.88;6169711;28;109831;-56
2023/12/30 08:10:12;;;;;;;31.23;28.33;;;;;;;22.13;27.50;95498.06;6162417;28;109252;-55
2023/12/30 08:13:16;;;;;;;30.37;27.53;;;;;;;22.20;27.48;95490.50;6164838;28;109026;-57
2023/12/30 08:16:20;;;;;;;29.70;26.80;;;;;;;22.23;28.05;95498.69;6175795;28;108966;-58
2023/12/30 08:19:23;;;;;;;27.70;25.13;;;;;;;22.26;27.97;95508.75;6170504;28;109279;-56
2023/12/30 08:22:26;;;;;;;27.77;25.07;;;;;;;22.30;28.58;95516.94;6162801;28;109131;-57
2023/12/30 08:25:30;;;;;;;27.80;25.20;;;;;;;22.30;28.28;95511.59;6159123;28;109282;-57
2023/12/30 08:28:33;;;;;;;28.03;25.20;;;;;;;22.32;28.98;95517.44;6179643;28;109036;-57
2023/12/30 08:31:45;;;;;;;28.10;25.17;;;;;;;22.32;28.37;95522.75;6185627;28;109012;-57
2023/12/30 08:34:49;;;;;;;26.57;24.07;;;;;;;22.33;28.60;95517.13;6177311;28;110345;-57
2023/12/30 08:37:52;;;;;;;25.17;22.87;;;;;;;22.34;28.89;95518.72;6151280;28;109041;-57
2023/12/30 08:40:55;;;;;;;23.90;21.80;;;;;;;22.35;28.68;95522.19;6162086;28;110152;-57
2023/12/30 08:43:58;;;;;;;25.60;23.20;;;;;;;22.38;29.02;95521.59;6172752;28;109555;-57
2023/12/30 08:47:03;;;;;;;23.97;21.60;;;;;;;22.48;29.14;95523.28;6182112;28;110140;-57
2023/12/30 08:50:08;;;;;;;27.20;22.70;;;;;;;22.46;29.23;95514.78;6174385;28;110078;-58
2023/12/30 08:53:11;;;;;;;23.67;21.47;;;;;;;22.44;29.27;95509.75;6162252;28;110136;-58
2023/12/30 08:56:15;;;;;;;23.93;21.63;;;;;;;22.41;29.59;95513.00;6161314;28;109140;-57
2023/12/30 08:59:18;;;;;;;22.90;20.77;;;;;;;22.39;29.24;95507.97;6162230;28;109027;-61
2023/12/30 09:02:23;;;;;;;25.87;20.63;;;;;;;22.40;29.47;95503.44;6149925;28;110008;-58
2023/12/30 09:05:26;;;;;;;22.90;20.57;;;;;;;22.38;29.34;95500.28;6164087;28;109238;-57
2023/12/30 09:08:31;;;;;;;21.67;19.57;;;;;;;22.41;29.70;95494.34;6176644;28;108811;-57
2023/12/30 09:11:37;;;;;;;21.53;19.47;;;;;;;22.42;29.86;95491.38;6160506;28;110009;-57
2023/12/30 09:14:40;;;;;;;21.00;19.20;;;;;;;22.49;29.52;95490.19;6157896;28;109422;-57
2023/12/30 09:17:45;;;;;;;20.80;18.77;;;;;;;22.53;29.45;95483.97;6159277;28;109139;-57
2023/12/30 09:20:48;;;;;;;20.13;18.33;;;;;;;22.57;29.96;95476.19;6164762;28;109151;-58
2023/12/30 09:23:51;;;;;;;20.70;18.90;;;;;;;22.49;29.93;95480.31;6159183;28;109671;-58
2023/12/30 09:26:55;;;;;;;21.93;19.83;;;;;;;22.46;29.32;95475.56;6163952;28;109109;-58
2023/12/30 09:29:58;;;;;;;22.30;20.10;;;;;;;22.43;29.68;95468.16;6167984;28;110173;-58
2023/12/30 09:33:02;;;;;;;20.37;18.57;;;;;;;22.40;29.58;95458.88;6160223;28;110210;-58
2023/12/30 09:36:07;;;;;;;21.63;19.53;;;;;;;22.42;29.01;95459.38;6157448;28;109580;-58
2023/12/30 09:39:12;;;;;;;20.57;18.80;;;;;;;22.43;28.83;95454.84;6170665;28;109046;-58
2023/12/30 09:42:16;;;;;;;21.17;19.27;;;;;;;22.44;28.79;95451.06;6167811;28;109301;-57
2023/12/30 09:45:20;;;;;;;21.90;19.77;;;;;;;22.45;29.19;95443.88;6153107;28;110170;-58
2023/12/30 09:48:29;;;;;;;24.43;22.10;;;;;;;22.29;29.14;95456.72;6164818;28;109584;-57
2023/12/30 09:51:33;;;;;;;24.43;21.73;;;;;;;22.26;29.45;95449.31;6160382;28;110673;-57
2023/12/30 09:54:39;;;;;;;23.67;21.17;;;;;;;22.41;28.83;95441.81;6166805;28;109510;-59
2023/12/30 09:57:51;;;;;;;21.30;19.40;;;;;;;22.54;28.87;95445.53;6149036;28;109090;-60
2023/12/30 10:00:54;;;;;;;22.20;19.93;;;;;;;22.57;28.79;95439.63;6163079;28;109317;-61
2023/12/30 10:03:59;;;;;;;20.13;18.43;;;;;;;22.62;29.14;95444.84;6162765;28;109243;-59
2023/12/30 10:07:02;;;;;;;18.80;17.00;;;;;;;22.66;29.39;95443.16;6163627;28;110034;-61
2023/12/30 10:10:08;;;;;;;20.00;18.00;;;;;;;22.68;29.16;95438.34;6150953;28;110185;-61
2023/12/30 10:13:14;;;;;;;19.73;17.70;;;;;;;22.71;29.28;95439.63;6167870;28;109637;-61
2023/12/30 10:16:17;;;;;;;20.20;17.30;;;;;;;22.72;29.69;95429.75;6174086;28;109202;-62
2023/12/30 10:19:22;;;;;;;18.63;16.93;;;;;;;22.71;29.64;95428.94;6176212;28;109051;-59
2023/12/30 10:22:25;;;;;;;18.40;16.60;;;;;;;22.73;29.38;95415.31;6163394;28;109468;-59
2023/12/30 10:25:29;;;;;;;18.93;17.30;;;;;;;22.73;29.77;95416.09;6164746;28;109259;-59
2023/12/30 10:28:33;;;;;;;18.13;16.43;;;;;;;22.72;29.93;95406.53;6169218;28;109470;-60
2023/12/30 10:31:37;;;;;;;18.27;16.37;;;;;;;22.72;29.97;95411.84;6158895;28;109350;-60
2023/12/30 10:34:42;;;;;;;19.27;16.27;;;;;;;22.72;29.54;95405.72;6162915;28;110130;-61
2023/12/30 10:37:48;;;;;;;16.63;15.13;;;;;;;22.72;30.13;95403.06;6167876;28;109237;-60
2023/12/30 10:40:52;;;;;;;17.10;15.60;;;;;;;22.74;29.64;95411.56;6167275;28;109410;-60
2023/12/30 10:43:58;;;;;;;16.30;14.90;;;;;;;22.72;29.89;95406.53;6159004;28;109057;-60
2023/12/30 10:47:03;;;;;;;17.83;16.30;;;;;;;22.69;30.30;95404.44;6162746;28;110234;-59
2023/12/30 10:50:10;;;;;;;16.87;15.37;;;;;;;22.68;30.08;95400.19;6168181;28;109988;-60
2023/12/30 10:53:21;;;;;;;16.70;15.20;;;;;;;22.67;30.01;95396.72;6160441;28;109625;-59
2023/12/30 10:56:26;;;;;;;17.50;15.63;;;;;;;22.65;30.71;95388.25;6161536;28;109108;-60
2023/12/30 10:59:30;;;;;;;16.33;14.83;;;;;;;22.68;30.59;95386.84;6176405;28;109117;-60
2023/12/30 11:02:34;;;;;;;15.60;14.20;;;;;;;22.68;30.19;95385.00;6171734;28;109244;-57
2023/12/30 11:05:44;;;;;;;16.87;15.27;;;;;;;22.71;30.29;95378.25;6162021;28;110473;-58
2023/12/30 11:08:47;;;;;;;16.40;14.90;;;;;;;22.69;30.54;95369.78;6171521;28;109481;-58
2023/12/30 11:11:51;;;;;;;15.80;14.30;;;;;;;22.69;30.81;95370.56;6169495;28;109262;-60
2023/12/30 11:14:55;;;;;;;17.50;15.67;;;;;;;22.70;30.68;95361.47;6170013;28;109079;-57
2023/12/30 11:17:59;;;;;;;16.63;15.20;;;;;;;22.71;30.33;95359.59;6160627;28;109874;-58
2023/12/30 11:21:04;;;;;;;16.00;14.50;;;;;;;22.73;29.95;95357.41;6169799;28;109059;-57
2023/12/30 11:24:12;;;;;;;16.47;15.07;;;;;;;22.74;30.62;95358.19;6172113;28;108987;-58
2023/12/30 11:27:17;;;;;;;17.00;15.50;;;;;;;22.73;30.46;95348.59;6167737;28;110040;-57
2023/12/30 11:30:26;;;;;;;15.77;14.37;;;;;;;22.76;30.09;95348.78;6165644;28;110228;-66
2023/12/30 11:33:29;;;;;;;16.10;14.60;;;;;;;22.79;30.78;95342.06;6171948;28;109112;-57
2023/12/30 11:36:34;;;;;;;15.57;14.07;;;;;;;22.80;30.45;95338.28;6166425;28;110036;-57
2023/12/30 11:39:41;;;;;;;15.77;14.37;;;;;;;22.80;30.33;95332.97;6161178;28;110047;-58
2023/12/30 11:42:44;;;;;;;16.37;14.80;;;;;;;22.80;30.85;95333.75;6170546;28;109208;-57
2023/12/30 11:45:51;;;;;;;15.97;14.47;;;;;;;22.78;30.63;95327.13;6168977;28;109026;-57
2023/12/30 11:48:54;;;;;;;15.90;14.30;;;;;;;22.79;30.76;95323.38;6167404;28;111062;-71
2023/12/30 11:52:04;;;;;;;15.40;13.90;;;;;;;22.79;30.67;95326.06;6157546;28;109715;-57
2023/12/30 11:55:08;;;;;;;15.60;14.20;;;;;;;22.79;31.01;95323.38;6165630;28;109585;-56
2023/12/30 11:58:11;;;;;;;16.37;14.70;;;;;;;22.78;30.73;95319.13;6166366;28;109002;-57
2023/12/30 12:01:15;;;;;;;16.27;14.87;;;;;;;22.75;31.07;95319.75;6168367;28;109137;-57
2023/12/30 12:04:19;;;;;;;16.70;15.10;;;;;;;22.77;30.91;95317.56;6161459;28;109044;-58
2023/12/30 12:07:23;;;;;;;16.40;14.90;;;;;;;22.77;30.79;95317.56;6167478;28;109264;-58
2023/12/30 12:10:27;;;;;;;15.77;14.37;;;;;;;22.76;30.94;95326.66;6169305;28;109492;-58
2023/12/30 12:13:30;;;;;;;17.90;16.20;;;;;;;22.76;31.31;95315.97;6158774;28;110315;-57
2023/12/30 12:16:33;;;;;;;17.23;15.57;;;;;;;22.74;31.10;95315.50;6170510;28;109382;-57
2023/12/30 12:19:38;;;;;;;18.70;16.93;;;;;;;22.73;31.25;95316.59;6170358;28;109235;-57
2023/12/30 12:22:44;;;;;;;17.80;16.13;;;;;;;22.73;31.10;95308.59;6171987;28;109049;-57
2023/12/30 12:25:48;;;;;;;17.40;15.80;;;;;;;22.77;30.89;95309.56;6152611;28;108865;-56
2023/12/30 12:28:53;;;;;;;17.27;15.63;;;;;;;22.75;31.47;95309.06;6173946;28;109441;-56
2023/12/30 12:31:57;;;;;;;17.70;16.10;;;;;;;22.76;31.37;95300.75;6169197;28;110009;-57
2023/12/30 12:35:00;;;;;;;18.40;16.60;;;;;;;22.83;31.63;95289.66;6164986;28;109554;-57
2023/12/30 12:38:05;;;;;;;16.17;14.70;;;;;;;22.84;31.86;95296.56;6158683;28;110283;-56
2023/12/30 12:41:08;;;;;;;15.70;14.23;;;;;;;22.85;31.54;95287.47;6167919;28;109176;-57
2023/12/30 12:44:11;;;;;;;16.57;14.87;;;;;;;22.84;31.35;95294.69;6167564;28;109180;-57
2023/12/30 12:47:15;;;;;;;17.67;15.87;;;;;;;22.80;31.92;95284.94;6165413;28;110384;-55
2023/12/30 12:50:18;;;;;;;15.93;14.33;;;;;;;22.98;31.94;95291.94;6166565;28;109084;-54
2023/12/30 12:53:23;;;;;;;16.43;14.73;;;;;;;23.11;31.70;95299.09;6160828;28;108850;-54
2023/12/30 12:56:26;;;;;;;15.87;14.27;;;;;;;23.20;31.27;95296.50;6168718;28;109160;-54
2023/12/30 12:59:29;;;;;;;15.73;14.23;;;;;;;23.26;31.54;95292.59;6154704;28;110392;-54
2023/12/30 13:02:32;;;;;;;16.17;14.53;;;;;;;23.23;31.42;95302.00;6163475;28;109100;-54
2023/12/30 13:05:36;;;;;;;15.27;12.73;;;;;;;23.25;31.41;95288.34;6165367;28;109014;-54
2023/12/30 13:08:41;;;;;;;14.77;13.43;;;;;;;23.27;31.16;95294.16;6175534;28;110526;-54
2023/12/30 13:11:44;;;;;;;14.33;13.13;;;;;;;23.28;31.49;95296.53;6160331;28;110169;-54
2023/12/30 13:14:48;;;;;;;15.00;13.60;;;;;;;23.29;31.43;95284.78;6172449;28;110217;-54
2023/12/30 13:17:51;;;;;;;13.73;12.53;;;;;;;23.29;31.19;95289.31;6174238;28;110097;-54
2023/12/30 13:20:55;;;;;;;15.67;14.17;;;;;;;23.30;31.16;95289.03;6163242;28;109532;-53
2023/12/30 13:23:59;;;;;;;13.97;12.80;;;;;;;23.29;31.03;95278.66;6157258;28;111488;-54
2023/12/30 13:27:03;;;;;;;14.60;13.20;;;;;;;23.29;31.49;95284.78;6167353;28;110183;-54
2023/12/30 13:30:07;;;;;;;13.87;12.57;;;;;;;23.25;31.41;95275.78;6159405;28;109177;-55
2023/12/30 13:33:16;;;;;;;14.43;13.10;;;;;;;23.25;31.55;95283.78;6154742;28;109986;-54
2023/12/30 13:36:19;;;;;;;14.37;12.97;;;;;;;23.23;31.50;95288.66;6166864;28;111406;-54
2023/12/30 13:39:25;;;;;;;13.63;12.43;;;;;;;23.27;31.58;95286.94;6162813;28;109257;-54
2023/12/30 13:42:28;;;;;;;13.77;12.57;;;;;;;23.28;31.69;95295.72;6164495;28;109249;-54
2023/12/30 13:45:32;;;;;;;12.80;11.70;;;;;;;23.27;31.36;95292.28;6155382;28;109141;-61
2023/12/30 13:49:18;;;;;;;12.93;11.73;;;;;;;23.27;31.88;95297.63;6167993;28;109077;-54
2023/12/30 13:52:12;;;;;;;13.73;12.00;;;;;;;23.27;31.97;95292.28;6179554;28;109162;-54
2023/12/30 13:55:18;;;;;;;13.53;12.23;;;;;;;23.29;31.65;95290.13;6177406;28;109321;-54
2023/12/30 13:58:21;;;;;;;13.47;12.20;;;;;;;23.30;32.05;95289.03;6179424;28;110179;-54